sensor_id;sensor_type;location;lat;lon;timestamp;pressure;altitude;pressure_sealevel;temperature;humidity
25722;BME280;13578;53.450;15.496;2023-02-17T00:00:52;99906.97;;;5.25;100.00
25722;BME280;13578;53.450;15.496;2023-02-17T00:03:53;99902.56;;;5.09;100.00
25722;BME280;13578;53.450;15.496;2023-02-17T00:06:55;99897.13;;;5.09;100.00
25722;BME280;13578;53.450;15.496;2023-02-17T00:09:58;99898.00;;;5.10;100.00
25722;BME280;13578;53.450;15.496;2023-02-17T00:12:59;99884.56;;;5.07;100.00
25722;BME280;13578;53.450;15.496;2023-02-17T00:16:08;99883.16;;;5.01;100.00
25722;BME280;13578;53.450;15.496;2023-02-17T00:19:11;99873.94;;;4.89;100.00
25722;BME280;13578;53.450;15.496;2023-02-17T00:22:23;99870.94;;;4.94;100.00
25722;BME280;13578;53.450;15.496;2023-02-17T00:25:24;99858.59;;;4.88;100.00
25722;BME280;13578;53.450;15.496;2023-02-17T00:28:25;99849.47;;;4.89;100.00
25722;BME280;13578;53.450;15.496;2023-02-17T00:31:25;99849.22;;;4.80;100.00
25722;BME280;13578;53.450;15.496;2023-02-17T00:34:26;99829.50;;;4.76;100.00
25722;BME280;13578;53.450;15.496;2023-02-17T00:37:27;99836.06;;;4.86;100.00
25722;BME280;13578;53.450;15.496;2023-02-17T00:40:28;99832.13;;;4.77;100.00
25722;BME280;13578;53.450;15.496;2023-02-17T00:43:28;99833.44;;;4.85;100.00
25722;BME280;13578;53.450;15.496;2023-02-17T00:46:29;99820.16;;;4.80;100.00
25722;BME280;13578;53.450;15.496;2023-02-17T00:49:30;99826.66;;;4.77;100.00
25722;BME280;13578;53.450;15.496;2023-02-17T00:52:30;99812.88;;;4.81;100.00
25722;BME280;13578;53.450;15.496;2023-02-17T00:55:31;99804.81;;;4.79;100.00
25722;BME280;13578;53.450;15.496;2023-02-17T00:58:31;99795.97;;;4.75;100.00
25722;BME280;13578;53.450;15.496;2023-02-17T01:01:32;99797.44;;;4.81;100.00
25722;BME280;13578;53.450;15.496;2023-02-17T01:04:33;99798.41;;;4.80;100.00
25722;BME280;13578;53.450;15.496;2023-02-17T01:07:34;99798.50;;;4.79;100.00
25722;BME280;13578;53.450;15.496;2023-02-17T01:10:40;99794.03;;;4.77;100.00
25722;BME280;13578;53.450;15.496;2023-02-17T01:13:41;99787.53;;;4.80;100.00
25722;BME280;13578;53.450;15.496;2023-02-17T01:16:47;99784.66;;;4.69;100.00
25722;BME280;13578;53.450;15.496;2023-02-17T01:19:48;99792.28;;;4.76;100.00
25722;BME280;13578;53.450;15.496;2023-02-17T01:22:48;99787.63;;;4.79;100.00
25722;BME280;13578;53.450;15.496;2023-02-17T01:25:49;99783.47;;;4.73;100.00
25722;BME280;13578;53.450;15.496;2023-02-17T01:28:51;99784.44;;;4.72;100.00
25722;BME280;13578;53.450;15.496;2023-02-17T01:31:51;99777.72;;;4.77;100.00
25722;BME280;13578;53.450;15.496;2023-02-17T01:34:52;99762.69;;;4.72;100.00
25722;BME280;13578;53.450;15.496;2023-02-17T01:37:53;99769.22;;;4.69;100.00
25722;BME280;13578;53.450;15.496;2023-02-17T01:40:53;99773.13;;;4.65;100.00
25722;BME280;13578;53.450;15.496;2023-02-17T01:44:05;99766.78;;;4.65;100.00
25722;BME280;13578;53.450;15.496;2023-02-17T01:47:11;99760.28;;;4.67;100.00
25722;BME280;13578;53.450;15.496;2023-02-17T01:50:12;99755.91;;;4.65;100.00
25722;BME280;13578;53.450;15.496;2023-02-17T01:53:18;99752.03;;;4.69;100.00
25722;BME280;13578;53.450;15.496;2023-02-17T01:56:21;99739.31;;;4.69;100.00
25722;BME280;13578;53.450;15.496;2023-02-17T01:59:23;99738.34;;;4.70;100.00
25722;BME280;13578;53.450;15.496;2023-02-17T02:02:24;99722.31;;;4.66;100.00
25722;BME280;13578;53.450;15.496;2023-02-17T02:05:25;99732.78;;;4.72;100.00
25722;BME280;13578;53.450;15.496;2023-02-17T02:08:28;99716.38;;;4.73;100.00
25722;BME280;13578;53.450;15.496;2023-02-17T02:11:33;99717.34;;;4.72;100.00
25722;BME280;13578;53.450;15.496;2023-02-17T02:14:33;99719.78;;;4.77;100.00
25722;BME280;13578;53.450;15.496;2023-02-17T02:28:42;99685.59;;;4.73;100.00
25722;BME280;13578;53.450;15.496;2023-02-17T02:41:33;99673.63;;;4.75;100.00
25722;BME280;13578;53.450;15.496;2023-02-17T02:44:35;99664.81;;;4.72;100.00
25722;BME280;13578;53.450;15.496;2023-02-17T02:54:32;99650.25;;;4.73;100.00
25722;BME280;13578;53.450;15.496;2023-02-17T02:57:51;99635.78;;;4.72;100.00
25722;BME280;13578;53.450;15.496;2023-02-17T03:01:10;99636.66;;;4.73;100.00
25722;BME280;13578;53.450;15.496;2023-02-17T03:04:29;99617.84;;;4.70;100.00
25722;BME280;13578;53.450;15.496;2023-02-17T03:07:52;99607.53;;;4.75;100.00
25722;BME280;13578;53.450;15.496;2023-02-17T03:10:55;99588.59;;;4.73;100.00
25722;BME280;13578;53.450;15.496;2023-02-17T03:14:02;99595.75;;;4.74;100.00
25722;BME280;13578;53.450;15.496;2023-02-17T03:17:03;99597.06;;;4.82;100.00
25722;BME280;13578;53.450;15.496;2023-02-17T03:20:05;99590.78;;;4.81;100.00
25722;BME280;13578;53.450;15.496;2023-02-17T03:23:06;99596.34;;;4.80;100.00
25722;BME280;13578;53.450;15.496;2023-02-17T03:26:06;99591.63;;;4.82;100.00
25722;BME280;13578;53.450;15.496;2023-02-17T03:29:07;99581.66;;;4.82;100.00
25722;BME280;13578;53.450;15.496;2023-02-17T03:32:08;99577.19;;;4.81;100.00
25722;BME280;13578;53.450;15.496;2023-02-17T03:35:09;99571.75;;;4.81;100.00
25722;BME280;13578;53.450;15.496;2023-02-17T03:38:10;99573.25;;;4.85;100.00
25722;BME280;13578;53.450;15.496;2023-02-17T03:41:10;99556.94;;;4.85;100.00
25722;BME280;13578;53.450;15.496;2023-02-17T03:44:11;99551.97;;;4.92;100.00
25722;BME280;13578;53.450;15.496;2023-02-17T03:47:12;99545.53;;;4.93;100.00
25722;BME280;13578;53.450;15.496;2023-02-17T03:50:12;99549.13;;;4.93;100.00
25722;BME280;13578;53.450;15.496;2023-02-17T03:53:13;99546.06;;;4.85;100.00
25722;BME280;13578;53.450;15.496;2023-02-17T03:56:17;99539.44;;;4.89;100.00
25722;BME280;13578;53.450;15.496;2023-02-17T03:59:18;99540.09;;;4.93;100.00
25722;BME280;13578;53.450;15.496;2023-02-17T04:02:20;99539.00;;;4.96;100.00
25722;BME280;13578;53.450;15.496;2023-02-17T04:05:20;99541.19;;;4.90;100.00
25722;BME280;13578;53.450;15.496;2023-02-17T04:08:21;99534.13;;;4.88;100.00
25722;BME280;13578;53.450;15.496;2023-02-17T04:11:21;99524.09;;;4.88;100.00
25722;BME280;13578;53.450;15.496;2023-02-17T04:14:22;99519.53;;;4.89;100.00
25722;BME280;13578;53.450;15.496;2023-02-17T04:17:23;99499.44;;;4.91;100.00
25722;BME280;13578;53.450;15.496;2023-02-17T04:20:23;99501.13;;;4.92;100.00
25722;BME280;13578;53.450;15.496;2023-02-17T04:23:24;99498.41;;;4.92;100.00
25722;BME280;13578;53.450;15.496;2023-02-17T04:26:25;99492.25;;;4.90;100.00
25722;BME280;13578;53.450;15.496;2023-02-17T04:29:25;99486.69;;;4.92;100.00
25722;BME280;13578;53.450;15.496;2023-02-17T04:32:26;99479.09;;;4.84;100.00
25722;BME280;13578;53.450;15.496;2023-02-17T04:35:27;99473.66;;;4.84;100.00
25722;BME280;13578;53.450;15.496;2023-02-17T04:38:29;99479.75;;;4.88;100.00
25722;BME280;13578;53.450;15.496;2023-02-17T04:41:30;99476.66;;;4.92;100.00
25722;BME280;13578;53.450;15.496;2023-02-17T04:44:31;99477.56;;;4.93;100.00
25722;BME280;13578;53.450;15.496;2023-02-17T04:47:31;99477.31;;;4.96;100.00
25722;BME280;13578;53.450;15.496;2023-02-17T04:50:32;99473.94;;;4.92;100.00
25722;BME280;13578;53.450;15.496;2023-02-17T04:53:33;99458.63;;;4.91;100.00
25722;BME280;13578;53.450;15.496;2023-02-17T04:56:33;99460.78;;;4.99;100.00
25722;BME280;13578;53.450;15.496;2023-02-17T04:59:34;99449.25;;;4.96;100.00
25722;BME280;13578;53.450;15.496;2023-02-17T05:02:34;99451.78;;;4.99;100.00
25722;BME280;13578;53.450;15.496;2023-02-17T05:05:35;99451.88;;;4.97;100.00
25722;BME280;13578;53.450;15.496;2023-02-17T05:08:36;99461.34;;;4.91;100.00
25722;BME280;13578;53.450;15.496;2023-02-17T05:11:37;99462.34;;;4.90;100.00
25722;BME280;13578;53.450;15.496;2023-02-17T05:14:37;99456.78;;;4.92;100.00
25722;BME280;13578;53.450;15.496;2023-02-17T05:17:38;99458.53;;;4.93;100.00
25722;BME280;13578;53.450;15.496;2023-02-17T05:20:39;99458.53;;;4.93;100.00
25722;BME280;13578;53.450;15.496;2023-02-17T05:23:39;99461.75;;;4.98;100.00
25722;BME280;13578;53.450;15.496;2023-02-17T05:26:40;99456.78;;;4.92;100.00
25722;BME280;13578;53.450;15.496;2023-02-17T05:29:41;99467.31;;;4.97;100.00
25722;BME280;13578;53.450;15.496;2023-02-17T05:32:41;99466.88;;;4.90;100.00
25722;BME280;13578;53.450;15.496;2023-02-17T05:35:42;99466.69;;;4.93;100.00
25722;BME280;13578;53.450;15.496;2023-02-17T05:38:42;99459.16;;;4.97;100.00
25722;BME280;13578;53.450;15.496;2023-02-17T05:41:45;99453.19;;;4.91;100.00
25722;BME280;13578;53.450;15.496;2023-02-17T05:44:45;99451.22;;;4.93;100.00
25722;BME280;13578;53.450;15.496;2023-02-17T05:47:46;99430.88;;;4.99;100.00
25722;BME280;13578;53.450;15.496;2023-02-17T05:50:47;99430.88;;;4.99;100.00
25722;BME280;13578;53.450;15.496;2023-02-17T05:53:47;99429.47;;;4.93;100.00
25722;BME280;13578;53.450;15.496;2023-02-17T05:56:48;99425.31;;;5.01;100.00
25722;BME280;13578;53.450;15.496;2023-02-17T05:59:48;99424.47;;;5.00;100.00
25722;BME280;13578;53.450;15.496;2023-02-17T06:02:49;99418.59;;;4.93;100.00
25722;BME280;13578;53.450;15.496;2023-02-17T06:05:50;99420.44;;;5.06;100.00
25722;BME280;13578;53.450;15.496;2023-02-17T06:08:51;99403.56;;;5.01;100.00
25722;BME280;13578;53.450;15.496;2023-02-17T06:11:51;99399.66;;;5.05;100.00
25722;BME280;13578;53.450;15.496;2023-02-17T06:14:52;99401.16;;;5.09;100.00
25722;BME280;13578;53.450;15.496;2023-02-17T06:17:53;99401.03;;;5.11;100.00
25722;BME280;13578;53.450;15.496;2023-02-17T06:20:55;99401.03;;;5.11;100.00
25722;BME280;13578;53.450;15.496;2023-02-17T06:23:56;99391.53;;;5.16;100.00
25722;BME280;13578;53.450;15.496;2023-02-17T06:26:56;99392.97;;;5.09;100.00
25722;BME280;13578;53.450;15.496;2023-02-17T06:29:57;99391.66;;;5.15;100.00
25722;BME280;13578;53.450;15.496;2023-02-17T06:32:58;99383.25;;;5.18;100.00
25722;BME280;13578;53.450;15.496;2023-02-17T06:35:58;99368.69;;;5.19;100.00
25722;BME280;13578;53.450;15.496;2023-02-17T06:38:59;99366.22;;;5.16;100.00
25722;BME280;13578;53.450;15.496;2023-02-17T06:42:00;99365.63;;;5.23;100.00
25722;BME280;13578;53.450;15.496;2023-02-17T06:45:00;99356.69;;;5.21;100.00
25722;BME280;13578;53.450;15.496;2023-02-17T06:48:04;99353.00;;;5.22;100.00
25722;BME280;13578;53.450;15.496;2023-02-17T06:51:05;99346.34;;;5.27;100.00
25722;BME280;13578;53.450;15.496;2023-02-17T06:54:06;99350.56;;;5.31;100.00
25722;BME280;13578;53.450;15.496;2023-02-17T06:57:06;99349.84;;;5.29;100.00
25722;BME280;13578;53.450;15.496;2023-02-17T07:00:07;99339.69;;;5.31;100.00
25722;BME280;13578;53.450;15.496;2023-02-17T07:03:08;99346.00;;;5.31;100.00
25722;BME280;13578;53.450;15.496;2023-02-17T07:06:09;99350.34;;;5.34;100.00
25722;BME280;13578;53.450;15.496;2023-02-17T07:09:10;99337.94;;;5.30;100.00
25722;BME280;13578;53.450;15.496;2023-02-17T07:12:13;99327.06;;;5.30;100.00
25722;BME280;13578;53.450;15.496;2023-02-17T07:15:14;99326.22;;;5.29;100.00
25722;BME280;13578;53.450;15.496;2023-02-17T07:18:15;99330.03;;;5.27;100.00
25722;BME280;13578;53.450;15.496;2023-02-17T07:21:15;99332.69;;;5.39;100.00
25722;BME280;13578;53.450;15.496;2023-02-17T07:24:16;99335.41;;;5.39;100.00
25722;BME280;13578;53.450;15.496;2023-02-17T07:27:17;99333.34;;;5.43;100.00
25722;BME280;13578;53.450;15.496;2023-02-17T07:30:17;99332.44;;;5.43;100.00
25722;BME280;13578;53.450;15.496;2023-02-17T07:33:18;99330.72;;;5.41;100.00
25722;BME280;13578;53.450;15.496;2023-02-17T07:36:19;99320.94;;;5.39;100.00
25722;BME280;13578;53.450;15.496;2023-02-17T07:39:19;99306.97;;;5.44;100.00
25722;BME280;13578;53.450;15.496;2023-02-17T07:42:20;99319.97;;;5.51;100.00
25722;BME280;13578;53.450;15.496;2023-02-17T07:45:20;99312.44;;;5.55;100.00
25722;BME280;13578;53.450;15.496;2023-02-17T07:48:21;99306.38;;;5.51;100.00
25722;BME280;13578;53.450;15.496;2023-02-17T07:51:22;99302.78;;;5.51;100.00
25722;BME280;13578;53.450;15.496;2023-02-17T07:54:23;99298.38;;;5.61;100.00
25722;BME280;13578;53.450;15.496;2023-02-17T07:57:24;99292.94;;;5.61;100.00
25722;BME280;13578;53.450;15.496;2023-02-17T08:00:24;99284.88;;;5.60;100.00
25722;BME280;13578;53.450;15.496;2023-02-17T08:03:25;99280.19;;;5.62;100.00
25722;BME280;13578;53.450;15.496;2023-02-17T08:06:26;99282.69;;;5.65;100.00
25722;BME280;13578;53.450;15.496;2023-02-17T08:09:26;99272.88;;;5.62;100.00
25722;BME280;13578;53.450;15.496;2023-02-17T08:12:46;99271.53;;;5.68;100.00
25722;BME280;13578;53.450;15.496;2023-02-17T08:16:09;99277.88;;;5.68;100.00
25722;BME280;13578;53.450;15.496;2023-02-17T08:19:09;99272.16;;;5.71;100.00
25722;BME280;13578;53.450;15.496;2023-02-17T08:22:10;99267.81;;;5.69;100.00
25722;BME280;13578;53.450;15.496;2023-02-17T08:25:11;99272.78;;;5.75;100.00
25722;BME280;13578;53.450;15.496;2023-02-17T08:28:11;99261.91;;;5.75;100.00
25722;BME280;13578;53.450;15.496;2023-02-17T08:34:16;99254.22;;;5.80;100.00
25722;BME280;13578;53.450;15.496;2023-02-17T08:37:17;99245.31;;;5.78;100.00
25722;BME280;13578;53.450;15.496;2023-02-17T08:40:18;99255.72;;;5.84;100.00
25722;BME280;13578;53.450;15.496;2023-02-17T08:43:19;99255.47;;;5.87;100.00
25722;BME280;13578;53.450;15.496;2023-02-17T08:46:19;99231.97;;;5.86;100.00
25722;BME280;13578;53.450;15.496;2023-02-17T08:49:22;99237.91;;;5.92;100.00
25722;BME280;13578;53.450;15.496;2023-02-17T08:52:23;99234.06;;;5.94;100.00
25722;BME280;13578;53.450;15.496;2023-02-17T08:55:24;99228.22;;;5.87;100.00
25722;BME280;13578;53.450;15.496;2023-02-17T08:58:25;99219.59;;;5.94;100.00
25722;BME280;13578;53.450;15.496;2023-02-17T09:01:25;99217.59;;;5.96;100.00
25722;BME280;13578;53.450;15.496;2023-02-17T09:04:26;99211.16;;;5.97;100.00
25722;BME280;13578;53.450;15.496;2023-02-17T09:07:27;99194.09;;;5.95;100.00
25722;BME280;13578;53.450;15.496;2023-02-17T09:10:27;99196.34;;;6.01;100.00
25722;BME280;13578;53.450;15.496;2023-02-17T09:13:28;99187.91;;;6.04;100.00
25722;BME280;13578;53.450;15.496;2023-02-17T09:16:29;99176.66;;;6.09;100.00
25722;BME280;13578;53.450;15.496;2023-02-17T09:19:30;99177.53;;;6.09;100.00
25722;BME280;13578;53.450;15.496;2023-02-17T09:22:30;99165.25;;;6.15;100.00
25722;BME280;13578;53.450;15.496;2023-02-17T09:25:31;99166.13;;;6.15;100.00
25722;BME280;13578;53.450;15.496;2023-02-17T09:28:32;99168.50;;;6.20;100.00
25722;BME280;13578;53.450;15.496;2023-02-17T09:31:34;99166.75;;;6.19;100.00
25722;BME280;13578;53.450;15.496;2023-02-17T09:34:36;99144.69;;;6.22;100.00
25722;BME280;13578;53.450;15.496;2023-02-17T09:37:37;99151.25;;;6.31;100.00
25722;BME280;13578;53.450;15.496;2023-02-17T09:40:46;99145.81;;;6.31;100.00
25722;BME280;13578;53.450;15.496;2023-02-17T09:43:49;99140.81;;;6.36;100.00
25722;BME280;13578;53.450;15.496;2023-02-17T09:54:07;99101.69;;;6.37;100.00
25722;BME280;13578;53.450;15.496;2023-02-17T09:56:49;99086.53;;;6.44;100.00
25722;BME280;13578;53.450;15.496;2023-02-17T09:59:59;99082.53;;;6.48;100.00
25722;BME280;13578;53.450;15.496;2023-02-17T10:03:15;99090.47;;;6.51;100.00
25722;BME280;13578;53.450;15.496;2023-02-17T10:06:32;99087.16;;;6.48;100.00
25722;BME280;13578;53.450;15.496;2023-02-17T10:09:41;99086.03;;;6.50;100.00
25722;BME280;13578;53.450;15.496;2023-02-17T10:12:54;99078.06;;;6.59;100.00
25722;BME280;13578;53.450;15.496;2023-02-17T10:15:59;99064.16;;;6.62;100.00
25722;BME280;13578;53.450;15.496;2023-02-17T10:19:14;99064.16;;;6.62;100.00
25722;BME280;13578;53.450;15.496;2023-02-17T10:22:20;99062.16;;;6.64;100.00
25722;BME280;13578;53.450;15.496;2023-02-17T10:29:00;99052.75;;;6.68;100.00
25722;BME280;13578;53.450;15.496;2023-02-17T10:32:30;99041.56;;;6.71;100.00
25722;BME280;13578;53.450;15.496;2023-02-17T10:35:57;99034.84;;;6.75;100.00
25722;BME280;13578;53.450;15.496;2023-02-17T10:39:11;99032.84;;;6.77;100.00
25722;BME280;13578;53.450;15.496;2023-02-17T10:42:33;99017.47;;;6.76;100.00
25722;BME280;13578;53.450;15.496;2023-02-17T10:45:44;99008.56;;;6.74;100.00
25722;BME280;13578;53.450;15.496;2023-02-17T10:48:51;99004.56;;;6.78;100.00
25722;BME280;13578;53.450;15.496;2023-02-17T10:51:52;98998.47;;;6.86;100.00
25722;BME280;13578;53.450;15.496;2023-02-17T10:55:33;98982.50;;;6.81;100.00
25722;BME280;13578;53.450;15.496;2023-02-17T10:58:33;98982.22;;;6.84;100.00
25722;BME280;13578;53.450;15.496;2023-02-17T11:01:36;98976.34;;;6.89;100.00
25722;BME280;13578;53.450;15.496;2023-02-17T11:04:42;98965.59;;;6.88;100.00
25722;BME280;13578;53.450;15.496;2023-02-17T11:07:43;98949.97;;;6.90;100.00
25722;BME280;13578;53.450;15.496;2023-02-17T11:10:44;98945.53;;;6.98;100.00
25722;BME280;13578;53.450;15.496;2023-02-17T11:14:09;98939.94;;;7.00;100.00
25722;BME280;13578;53.450;15.496;2023-02-17T11:17:19;98914.34;;;6.91;100.00
25722;BME280;13578;53.450;15.496;2023-02-17T11:23:23;98898.59;;;6.95;100.00
25722;BME280;13578;53.450;15.496;2023-02-17T11:26:26;98894.44;;;7.01;100.00
25722;BME280;13578;53.450;15.496;2023-02-17T11:29:28;98882.94;;;6.97;100.00
25722;BME280;13578;53.450;15.496;2023-02-17T11:32:30;98880.38;;;7.05;100.00
25722;BME280;13578;53.450;15.496;2023-02-17T11:41:38;98854.56;;;7.09;100.00
25722;BME280;13578;53.450;15.496;2023-02-17T11:44:39;98871.47;;;7.03;100.00
25722;BME280;13578;53.450;15.496;2023-02-17T12:01:06;98808.31;;;7.08;100.00
25722;BME280;13578;53.450;15.496;2023-02-17T12:04:24;98794.81;;;7.16;100.00
25722;BME280;13578;53.450;15.496;2023-02-17T12:10:50;98768.25;;;7.18;100.00
25722;BME280;13578;53.450;15.496;2023-02-17T12:14:25;98759.94;;;7.29;100.00
25722;BME280;13578;53.450;15.496;2023-02-17T12:24:34;98743.84;;;7.26;100.00
25722;BME280;13578;53.450;15.496;2023-02-17T12:27:53;98734.50;;;7.29;100.00
25722;BME280;13578;53.450;15.496;2023-02-17T12:31:41;98719.59;;;7.33;100.00
25722;BME280;13578;53.450;15.496;2023-02-17T12:35:29;98708.34;;;7.36;100.00
25722;BME280;13578;53.450;15.496;2023-02-17T12:38:40;98691.97;;;7.36;100.00
25722;BME280;13578;53.450;15.496;2023-02-17T12:41:52;98690.25;;;7.35;100.00
25722;BME280;13578;53.450;15.496;2023-02-17T12:45:16;98673.59;;;7.38;100.00
25722;BME280;13578;53.450;15.496;2023-02-17T12:51:33;98664.66;;;7.46;100.00
25722;BME280;13578;53.450;15.496;2023-02-17T12:54:44;98661.38;;;7.42;100.00
25722;BME280;13578;53.450;15.496;2023-02-17T12:57:59;98641.81;;;7.47;100.00
25722;BME280;13578;53.450;15.496;2023-02-17T13:01:11;98641.72;;;7.49;100.00
25722;BME280;13578;53.450;15.496;2023-02-17T13:04:16;98642.56;;;7.49;100.00
25722;BME280;13578;53.450;15.496;2023-02-17T13:07:39;98636.50;;;7.55;100.00
25722;BME280;13578;53.450;15.496;2023-02-17T13:10:43;98629.47;;;7.53;100.00
25722;BME280;13578;53.450;15.496;2023-02-17T13:13:43;98639.94;;;7.57;100.00
25722;BME280;13578;53.450;15.496;2023-02-17T13:16:44;98627.88;;;7.60;100.00
25722;BME280;13578;53.450;15.496;2023-02-17T13:19:46;98624.84;;;7.63;100.00
25722;BME280;13578;53.450;15.496;2023-02-17T13:22:46;98611.22;;;7.63;100.00
25722;BME280;13578;53.450;15.496;2023-02-17T13:26:45;98604.72;;;7.64;100.00
25722;BME280;13578;53.450;15.496;2023-02-17T13:32:30;98605.75;;;7.63;100.00
25722;BME280;13578;53.450;15.496;2023-02-17T13:35:34;98581.84;;;7.65;100.00
25722;BME280;13578;53.450;15.496;2023-02-17T13:38:35;98589.59;;;7.70;100.00
25722;BME280;13578;53.450;15.496;2023-02-17T13:41:46;98586.72;;;7.71;100.00
25722;BME280;13578;53.450;15.496;2023-02-17T13:44:49;98586.13;;;7.77;100.00
25722;BME280;13578;53.450;15.496;2023-02-17T13:47:53;98582.09;;;7.82;100.00
25722;BME280;13578;53.450;15.496;2023-02-17T13:50:57;98579.19;;;7.83;100.00
25722;BME280;13578;53.450;15.496;2023-02-17T13:54:08;98577.63;;;7.81;100.00
25722;BME280;13578;53.450;15.496;2023-02-17T13:57:30;98571.44;;;7.88;100.00
25722;BME280;13578;53.450;15.496;2023-02-17T14:00:31;98551.69;;;7.94;100.00
25722;BME280;13578;53.450;15.496;2023-02-17T14:03:33;98562.19;;;7.89;100.00
25722;BME280;13578;53.450;15.496;2023-02-17T14:06:36;98546.53;;;7.91;100.00
25722;BME280;13578;53.450;15.496;2023-02-17T14:09:37;98545.78;;;7.99;100.00
25722;BME280;13578;53.450;15.496;2023-02-17T14:12:38;98549.69;;;7.97;100.00
25722;BME280;13578;53.450;15.496;2023-02-17T14:15:57;98557.00;;;7.96;100.00
25722;BME280;13578;53.450;15.496;2023-02-17T14:19:10;98543.16;;;8.07;100.00
25722;BME280;13578;53.450;15.496;2023-02-17T14:22:31;98536.66;;;8.08;100.00
25722;BME280;13578;53.450;15.496;2023-02-17T14:25:35;98533.31;;;8.15;100.00
25722;BME280;13578;53.450;15.496;2023-02-17T14:28:36;98528.25;;;8.20;100.00
25722;BME280;13578;53.450;15.496;2023-02-17T14:31:57;98521.44;;;8.24;100.00
25722;BME280;13578;53.450;15.496;2023-02-17T14:38:23;98513.78;;;8.27;100.00
25722;BME280;13578;53.450;15.496;2023-02-17T14:41:24;98511.94;;;8.28;100.00
25722;BME280;13578;53.450;15.496;2023-02-17T14:44:25;98507.03;;;8.32;100.00
25722;BME280;13578;53.450;15.496;2023-02-17T14:47:26;98506.47;;;8.28;100.00
25722;BME280;13578;53.450;15.496;2023-02-17T14:50:26;98499.28;;;8.27;100.00
25722;BME280;13578;53.450;15.496;2023-02-17T14:53:34;98502.22;;;8.34;100.00
25722;BME280;13578;53.450;15.496;2023-02-17T14:56:39;98503.19;;;8.42;100.00
25722;BME280;13578;53.450;15.496;2023-02-17T14:59:41;98492.56;;;8.39;100.00
25722;BME280;13578;53.450;15.496;2023-02-17T15:02:42;98488.50;;;8.43;100.00
25722;BME280;13578;53.450;15.496;2023-02-17T15:05:43;98488.34;;;8.45;100.00
25722;BME280;13578;53.450;15.496;2023-02-17T15:08:45;98494.66;;;8.46;100.00
25722;BME280;13578;53.450;15.496;2023-02-17T15:11:48;98490.66;;;8.50;100.00
25722;BME280;13578;53.450;15.496;2023-02-17T15:14:49;98491.03;;;8.55;100.00
25722;BME280;13578;53.450;15.496;2023-02-17T15:17:50;98499.94;;;8.57;100.00
25722;BME280;13578;53.450;15.496;2023-02-17T15:20:51;98497.22;;;8.57;100.00
25722;BME280;13578;53.450;15.496;2023-02-17T15:23:53;98503.06;;;8.62;100.00
25722;BME280;13578;53.450;15.496;2023-02-17T15:26:54;98501.03;;;8.64;100.00
25722;BME280;13578;53.450;15.496;2023-02-17T15:29:55;98493.91;;;8.71;100.00
25722;BME280;13578;53.450;15.496;2023-02-17T15:32:56;98495.75;;;8.71;100.00
25722;BME280;13578;53.450;15.496;2023-02-17T15:35:57;98492.19;;;8.70;100.00
25722;BME280;13578;53.450;15.496;2023-02-17T15:38:57;98485.34;;;8.66;100.00
25722;BME280;13578;53.450;15.496;2023-02-17T15:42:05;98490.16;;;8.72;100.00
25722;BME280;13578;53.450;15.496;2023-02-17T15:45:10;98484.22;;;8.77;100.00
25722;BME280;13578;53.450;15.496;2023-02-17T15:48:21;98489.88;;;8.84;100.00
25722;BME280;13578;53.450;15.496;2023-02-17T15:51:23;98494.66;;;8.82;100.00
25722;BME280;13578;53.450;15.496;2023-02-17T15:54:24;98486.50;;;8.90;100.00
25722;BME280;13578;53.450;15.496;2023-02-17T15:57:24;98477.75;;;8.86;100.00
25722;BME280;13578;53.450;15.496;2023-02-17T16:00:31;98469.09;;;8.91;100.00
25722;BME280;13578;53.450;15.496;2023-02-17T16:03:32;98470.31;;;8.97;100.00
25722;BME280;13578;53.450;15.496;2023-02-17T16:06:33;98448.91;;;8.92;100.00
25722;BME280;13578;53.450;15.496;2023-02-17T16:09:33;98465.88;;;8.96;100.00
25722;BME280;13578;53.450;15.496;2023-02-17T16:12:34;98455.09;;;8.94;100.00
25722;BME280;13578;53.450;15.496;2023-02-17T16:15:35;98449.16;;;8.99;100.00
25722;BME280;13578;53.450;15.496;2023-02-17T16:18:36;98448.28;;;8.98;100.00
25722;BME280;13578;53.450;15.496;2023-02-17T16:21:37;98439.03;;;8.99;100.00
25722;BME280;13578;53.450;15.496;2023-02-17T16:24:38;98440.06;;;8.98;100.00
25722;BME280;13578;53.450;15.496;2023-02-17T16:27:39;98432.88;;;8.97;100.00
25722;BME280;13578;53.450;15.496;2023-02-17T16:30:41;98429.28;;;8.97;100.00
25722;BME280;13578;53.450;15.496;2023-02-17T16:33:42;98427.56;;;8.96;100.00
25722;BME280;13578;53.450;15.496;2023-02-17T16:36:43;98438.69;;;8.94;100.00
25722;BME280;13578;53.450;15.496;2023-02-17T16:39:44;98438.50;;;8.96;100.00
25722;BME280;13578;53.450;15.496;2023-02-17T16:42:45;98432.19;;;8.95;100.00
25722;BME280;13578;53.450;15.496;2023-02-17T16:46:00;98434.75;;;8.97;100.00
25722;BME280;13578;53.450;15.496;2023-02-17T16:49:02;98431.53;;;9.01;100.00
25722;BME280;13578;53.450;15.496;2023-02-17T16:52:06;98434.94;;;9.03;100.00
25722;BME280;13578;53.450;15.496;2023-02-17T16:55:18;98425.41;;;9.08;100.00
25722;BME280;13578;53.450;15.496;2023-02-17T16:58:21;98442.16;;;9.04;100.00
25722;BME280;13578;53.450;15.496;2023-02-17T17:01:21;98438.22;;;9.07;100.00
25722;BME280;13578;53.450;15.496;2023-02-17T17:04:22;98424.41;;;9.09;100.00
25722;BME280;13578;53.450;15.496;2023-02-17T17:07:23;98451.91;;;9.07;100.00
25722;BME280;13578;53.450;15.496;2023-02-17T17:10:27;98448.38;;;9.15;100.00
25722;BME280;13578;53.450;15.496;2023-02-17T17:13:28;98445.69;;;9.23;100.00
25722;BME280;13578;53.450;15.496;2023-02-17T17:16:30;98467.59;;;9.23;100.00
25722;BME280;13578;53.450;15.496;2023-02-17T17:19:32;98470.38;;;9.31;100.00
25722;BME280;13578;53.450;15.496;2023-02-17T17:22:33;98475.81;;;9.23;100.00
25722;BME280;13578;53.450;15.496;2023-02-17T17:25:37;98487.47;;;9.07;100.00